METAR SBMG

2018042120 - METAR SBMG 212000Z 21003KT 9999 FEW045 29/18 Q1015=

Escala PR-FEA

ESCALA - SIMULADOR GA-18

Escala PR-FGM
Powered by ©Kanestech